Banks Springs, Louisiana
Current Conditions -  °F | °C
As of 5:53 AM on Monday 22 Dec 2014 (Local Time) from KMLU Reporting Station
Moderate Fog Moderate Fog  
Wind Chill: 46°   Ceiling: 200
Heat Index: 49°   Visibility: 0.5mi
Dew Point: 49°   Wind: 7mph
Humidity: 100%   Direction: 160°SSE
Pressure: 29.82"   Gusts: NA
Location:  32.1631°N, 92.1971°W
Report Text: KMLU 221153Z 16006KT 1/2SM FG OVC002 09/09 A2982 RMK AO2 SLP097 T00940094 10094 20072 58006
Loading
Personal Weather Stations






























Interactive Weather Map New forecast layout! Learn more

10-Day Weather Forecast

Advertisements
Track Severe Weather on mobile